Time;durP1;ratioP1;P1;durP2;ratioP2;P2;SDS_P1;SDS_P2;PMS_P1;PMS_P2;Temp;Humidity;BMP_temperature;BMP_pressure;BME280_temperature;BME280_humidity;BME280_pressure;Samples;Min_cycle;Max_cycle;Signal;HPM_P1;HPM_P2
2022/04/06 00:00:34;;;;;;;2.25;1.17;;;10.80;79.90;;;;;;5099940;28;20184;-63
2022/04/06 00:03:02;;;;;;;3.00;1.10;;;10.80;79.90;;;;;;5112635;28;20180;-63
2022/04/06 00:05:29;;;;;;;2.65;1.30;;;10.80;79.90;;;;;;5105835;28;20189;-63
2022/04/06 00:07:57;;;;;;;2.78;1.48;;;10.80;80.20;;;;;;5092533;28;20185;-63
2022/04/06 00:10:26;;;;;;;2.08;1.10;;;10.70;80.30;;;;;;5097520;28;20184;-64
2022/04/06 00:12:53;;;;;;;1.95;1.10;;;10.70;80.40;;;;;;5112846;28;20200;-63
2022/04/06 00:15:21;;;;;;;2.25;1.23;;;10.70;80.30;;;;;;5108518;28;20264;-63
2022/04/06 00:17:48;;;;;;;2.95;1.10;;;10.70;80.10;;;;;;5092048;28;20220;-63
2022/04/06 00:20:16;;;;;;;2.22;1.00;;;10.70;80.30;;;;;;5094745;28;20185;-63
2022/04/06 00:22:44;;;;;;;2.40;1.05;;;10.80;80.40;;;;;;5103275;28;20250;-63
2022/04/06 00:25:11;;;;;;;2.33;1.17;;;10.70;80.30;;;;;;5093346;28;20648;-63
2022/04/06 00:27:40;;;;;;;1.60;0.80;;;10.70;80.40;;;;;;5111908;28;20200;-63
2022/04/06 00:30:08;;;;;;;2.00;1.05;;;10.80;80.70;;;;;;5107159;28;20181;-63
2022/04/06 00:32:37;;;;;;;1.70;0.85;;;10.80;80.40;;;;;;5092187;28;20732;-63
2022/04/06 00:35:31;;;;;;;2.65;0.70;;;10.80;80.20;;;;;;5095547;28;20212;-63
2022/04/06 00:37:59;;;;;;;1.83;0.85;;;10.80;80.00;;;;;;5112121;28;20204;-64
2022/04/06 00:40:27;;;;;;;1.60;0.60;;;10.80;80.40;;;;;;5106542;28;20189;-63
2022/04/06 00:42:56;;;;;;;2.45;0.90;;;10.80;80.50;;;;;;5092306;28;20293;-63
2022/04/06 00:45:27;;;;;;;1.80;0.65;;;10.80;80.40;;;;;;5096697;28;20285;-63
2022/04/06 00:47:55;;;;;;;1.88;0.80;;;10.80;80.50;;;;;;5112839;28;20283;-63
2022/04/06 00:50:25;;;;;;;1.85;1.00;;;10.80;79.90;;;;;;5108250;28;20204;-63
2022/04/06 00:52:57;;;;;;;1.90;0.88;;;10.80;80.00;;;;;;5092068;28;20192;-63
2022/04/06 00:55:27;;;;;;;3.05;0.98;;;10.80;80.20;;;;;;5095563;28;20257;-63
2022/04/06 00:57:57;;;;;;;1.98;0.77;;;10.70;80.10;;;;;;5112083;28;20204;-64
2022/04/06 01:00:26;;;;;;;1.50;0.70;;;10.60;80.50;;;;;;5096186;28;20267;-63
2022/04/06 01:02:54;;;;;;;1.85;0.75;;;10.60;81.20;;;;;;5092054;28;20201;-63
2022/04/06 01:05:22;;;;;;;1.75;0.80;;;10.50;81.10;;;;;;5106704;28;20199;-63
2022/04/06 01:07:51;;;;;;;1.67;0.80;;;10.50;81.50;;;;;;5112008;28;20199;-63
2022/04/06 01:10:19;;;;;;;2.28;0.70;;;10.50;81.60;;;;;;5097763;28;20189;-63
2022/04/06 01:12:50;;;;;;;1.80;0.80;;;10.50;81.80;;;;;;5091437;28;20671;-63
2022/04/06 01:15:20;;;;;;;1.80;0.85;;;10.50;81.70;;;;;;5104722;28;20192;-63
2022/04/06 01:17:47;;;;;;;1.92;0.70;;;10.50;81.80;;;;;;5111907;28;20264;-63
2022/04/06 01:20:15;;;;;;;2.10;0.98;;;10.50;81.70;;;;;;5099520;28;20217;-63
2022/04/06 01:22:44;;;;;;;1.70;0.88;;;10.50;81.80;;;;;;5094973;28;20566;-63
2022/04/06 01:25:12;;;;;;;1.60;0.70;;;10.50;81.60;;;;;;5111969;28;20188;-63
2022/04/06 01:27:39;;;;;;;1.70;0.60;;;10.50;81.40;;;;;;5108740;28;20184;-63
2022/04/06 01:30:07;;;;;;;2.17;0.90;;;10.50;81.40;;;;;;5091518;28;20200;-64
2022/04/06 01:32:35;;;;;;;1.80;0.80;;;10.50;81.30;;;;;;5092645;28;20189;-63
2022/04/06 01:35:04;;;;;;;1.70;0.90;;;10.50;81.00;;;;;;5112051;28;20185;-63
2022/04/06 01:37:34;;;;;;;1.55;0.60;;;10.50;81.60;;;;;;5111125;28;20180;-63
2022/04/06 01:40:05;;;;;;;1.50;0.80;;;10.40;81.80;;;;;;5116022;28;20220;-63
2022/04/06 01:42:32;;;;;;;1.50;0.60;;;10.40;82.10;;;;;;5102459;28;20276;-63
2022/04/06 01:45:00;;;;;;;1.90;0.70;;;10.40;82.10;;;;;;5095323;28;20234;-65
2022/04/06 01:47:27;;;;;;;2.75;0.70;;;10.50;81.80;;;;;;5106420;28;20238;-64
2022/04/06 01:52:40;;;;;;;1.88;0.73;;;10.50;82.20;;;;;;5097132;28;20192;-63
2022/04/06 01:55:11;;;;;;;2.08;0.70;;;10.40;82.00;;;;;;5095221;28;20232;-63
2022/04/06 01:57:39;;;;;;;1.50;0.60;;;10.40;82.10;;;;;;5110161;28;20225;-63
2022/04/06 02:00:12;;;;;;;3.05;0.70;;;10.40;82.00;;;;;;5115340;27;20227;-63
2022/04/06 02:02:41;;;;;;;1.70;0.80;;;10.30;81.90;;;;;;5098109;28;20185;-63
2022/04/06 02:05:08;;;;;;;1.77;1.08;;;10.30;82.00;;;;;;5094965;28;20199;-63
2022/04/06 02:07:36;;;;;;;2.42;0.88;;;10.30;82.10;;;;;;5110231;28;20196;-65
2022/04/06 02:10:05;;;;;;;1.95;0.80;;;10.30;81.60;;;;;;5115152;28;20185;-63
2022/04/06 02:12:34;;;;;;;2.17;0.95;;;10.40;81.30;;;;;;5099871;28;20208;-63
2022/04/06 02:15:01;;;;;;;2.08;0.90;;;10.40;80.90;;;;;;5094625;28;20189;-64
2022/04/06 02:17:29;;;;;;;1.50;0.60;;;10.40;81.00;;;;;;5107699;28;20223;-63
2022/04/06 02:20:01;;;;;;;2.00;0.90;;;10.40;80.90;;;;;;5115121;28;20223;-63
2022/04/06 02:22:28;;;;;;;2.58;1.27;;;10.40;80.60;;;;;;5101573;28;20640;-65
2022/04/06 02:24:56;;;;;;;2.10;1.00;;;10.40;80.50;;;;;;5094726;28;20199;-63
2022/04/06 02:27:23;;;;;;;1.80;0.80;;;10.50;80.30;;;;;;5105788;28;20269;-63
2022/04/06 02:29:53;;;;;;;3.80;0.80;;;10.40;80.10;;;;;;5114917;28;20192;-63
2022/04/06 02:32:21;;;;;;;2.90;0.90;;;10.40;80.00;;;;;;5104681;28;20231;-64
2022/04/06 02:34:48;;;;;;;1.80;0.80;;;10.40;80.00;;;;;;5114785;28;20231;-65
2022/04/06 02:37:16;;;;;;;2.08;0.90;;;10.40;79.90;;;;;;5105123;28;20197;-63
2022/04/06 02:39:43;;;;;;;1.95;1.15;;;10.40;80.00;;;;;;5094463;28;20303;-63
2022/04/06 02:42:10;;;;;;;2.50;1.48;;;10.50;80.00;;;;;;5101785;28;20187;-63
2022/04/06 02:44:39;;;;;;;2.55;1.30;;;10.50;79.90;;;;;;5114550;28;20196;-63
2022/04/06 02:47:10;;;;;;;3.08;1.58;;;10.50;79.80;;;;;;5107112;28;20181;-63
2022/04/06 02:49:37;;;;;;;3.20;1.35;;;10.50;80.00;;;;;;5093521;28;20321;-63
2022/04/06 02:52:05;;;;;;;2.40;1.30;;;10.50;80.00;;;;;;5099516;28;20184;-63
2022/04/06 02:54:33;;;;;;;2.20;1.05;;;10.50;80.10;;;;;;5114283;28;20224;-63
2022/04/06 02:57:00;;;;;;;3.30;1.30;;;10.50;79.90;;;;;;5109134;28;20203;-63
2022/04/06 02:59:27;;;;;;;3.63;1.20;;;10.50;79.90;;;;;;5093987;28;20217;-63
2022/04/06 03:01:55;;;;;;;3.20;1.73;;;10.40;79.90;;;;;;5107245;28;20200;-63
2022/04/06 03:04:27;;;;;;;4.68;2.10;;;10.50;79.80;;;;;;5114259;28;20275;-63
2022/04/06 03:06:54;;;;;;;2.65;1.50;;;10.50;79.60;;;;;;5100867;28;20195;-63
2022/04/06 03:09:21;;;;;;;4.55;2.10;;;10.40;79.80;;;;;;5093680;28;20193;-63
2022/04/06 03:11:48;;;;;;;2.83;1.55;;;10.40;80.00;;;;;;5104949;28;20188;-63
2022/04/06 03:14:19;;;;;;;2.63;1.60;;;10.20;80.60;;;;;;5113913;28;20662;-63
2022/04/06 03:16:46;;;;;;;2.75;1.02;;;10.20;81.50;;;;;;5102658;28;20626;-63
2022/04/06 03:19:13;;;;;;;1.80;0.90;;;10.10;81.60;;;;;;5093454;28;20581;-64
2022/04/06 03:21:42;;;;;;;1.70;0.90;;;10.10;82.00;;;;;;5102658;28;20321;-63
2022/04/06 03:24:10;;;;;;;2.15;0.95;;;10.10;82.40;;;;;;5113613;28;20196;-63
2022/04/06 03:26:37;;;;;;;2.45;1.05;;;10.00;82.80;;;;;;5108380;28;20185;-63
2022/04/06 03:29:04;;;;;;;1.90;1.13;;;10.00;82.80;;;;;;5093113;28;20276;-64
2022/04/06 03:31:32;;;;;;;5.55;1.23;;;9.90;84.70;;;;;;5093433;28;20235;-63
2022/04/06 03:33:59;;;;;;;3.40;1.70;;;9.90;84.90;;;;;;5093255;28;20181;-63
2022/04/06 03:36:26;;;;;;;3.67;1.90;;;9.90;85.40;;;;;;5093237;28;20224;-63
2022/04/06 03:38:55;;;;;;;1.70;0.80;;;9.90;85.30;;;;;;5093706;28;20185;-63
2022/04/06 03:41:30;;;;;;;2.00;0.98;;;9.80;85.40;;;;;;5092918;28;20640;-63
2022/04/06 03:43:57;;;;;;;2.13;1.02;;;9.80;86.30;;;;;;5096847;28;20223;-63
2022/04/06 03:46:24;;;;;;;2.40;1.23;;;9.80;85.80;;;;;;5113523;28;20189;-63
2022/04/06 03:48:51;;;;;;;2.30;1.20;;;9.80;85.90;;;;;;5109846;28;20269;-63
2022/04/06 03:51:19;;;;;;;2.55;1.65;;;9.70;86.20;;;;;;5092867;28;20660;-63
2022/04/06 03:53:46;;;;;;;4.75;2.45;;;9.70;86.70;;;;;;5094303;28;20668;-63
2022/04/06 03:56:15;;;;;;;5.25;3.10;;;9.60;87.30;;;;;;5112658;28;20180;-63
2022/04/06 03:58:43;;;;;;;6.40;3.25;;;9.60;87.60;;;;;;5111807;28;20227;-63
2022/04/06 04:01:11;;;;;;;4.13;2.13;;;9.60;87.60;;;;;;5092718;28;20223;-63
2022/04/06 04:03:41;;;;;;;2.75;1.35;;;9.40;87.80;;;;;;5093044;28;20265;-64
2022/04/06 04:06:08;;;;;;;2.72;1.58;;;9.40;87.90;;;;;;5072833;28;20197;-63
2022/04/06 04:08:36;;;;;;;2.08;1.08;;;9.40;87.70;;;;;;5072318;28;20221;-64
2022/04/06 04:11:04;;;;;;;2.80;1.20;;;9.40;87.70;;;;;;5111477;28;20187;-63
2022/04/06 04:13:33;;;;;;;2.15;0.90;;;9.30;88.80;;;;;;5113316;28;20219;-63
2022/04/06 04:16:01;;;;;;;3.95;1.00;;;9.20;88.70;;;;;;5094162;28;20201;-63
2022/04/06 04:18:29;;;;;;;3.10;1.20;;;9.20;88.60;;;;;;5092538;28;20248;-63
2022/04/06 04:21:32;;;;;;;2.00;0.90;;;9.20;89.40;;;;;;5109604;28;20220;-63
2022/04/06 04:23:44;;;;;;;2.00;0.80;;;9.10;88.70;;;;;;5094274;28;20674;-63
2022/04/06 04:26:11;;;;;;;1.83;0.75;;;9.10;88.40;;;;;;5092419;28;20199;-63
2022/04/06 04:28:40;;;;;;;1.88;1.00;;;9.10;88.30;;;;;;5109405;28;20211;-63
2022/04/06 04:31:07;;;;;;;1.70;0.90;;;9.00;87.70;;;;;;5112732;28;20639;-63
2022/04/06 04:33:34;;;;;;;2.90;1.58;;;8.90;87.80;;;;;;5096630;28;20738;-63
2022/04/06 04:36:05;;;;;;;2.33;1.20;;;8.90;87.70;;;;;;5092435;28;20185;-63
2022/04/06 04:38:32;;;;;;;2.13;1.10;;;8.90;88.00;;;;;;5106802;28;20195;-63
2022/04/06 04:41:06;;;;;;;3.53;1.50;;;8.80;88.10;;;;;;5112731;28;20231;-63
2022/04/06 04:43:33;;;;;;;2.88;1.30;;;8.80;88.30;;;;;;5098156;28;20207;-63
2022/04/06 04:46:03;;;;;;;3.33;1.88;;;8.80;88.40;;;;;;5091564;28;20191;-63
2022/04/06 04:48:30;;;;;;;3.40;1.83;;;8.70;88.40;;;;;;5105290;28;20188;-63
2022/04/06 04:51:04;;;;;;;2.30;1.30;;;8.70;88.30;;;;;;5102937;28;20192;-63
2022/04/06 04:53:33;;;;;;;2.10;1.10;;;8.70;88.20;;;;;;5092423;28;20655;-63
2022/04/06 04:56:00;;;;;;;2.17;1.00;;;8.60;87.90;;;;;;5093170;28;20575;-64
2022/04/06 04:58:28;;;;;;;2.33;1.88;;;8.50;88.20;;;;;;5103846;28;20188;-63
2022/04/06 05:00:55;;;;;;;2.10;1.17;;;8.50;88.70;;;;;;5102149;28;20535;-62
2022/04/06 05:03:47;;;;;;;2.72;1.38;;;8.40;89.40;;;;;;5092383;28;20566;-63
2022/04/06 05:06:14;;;;;;;1.90;1.17;;;8.40;89.40;;;;;;5103782;28;20542;-63
2022/04/06 05:08:42;;;;;;;2.15;1.00;;;8.20;89.80;;;;;;5098536;28;20193;-64
2022/04/06 05:11:10;;;;;;;2.58;1.15;;;8.20;90.20;;;;;;5083609;28;20216;-63
2022/04/06 05:13:38;;;;;;;2.50;1.35;;;8.20;90.10;;;;;;5093114;28;20189;-65
2022/04/06 05:16:06;;;;;;;2.00;0.90;;;8.20;90.20;;;;;;5097146;28;20184;-63
2022/04/06 05:18:35;;;;;;;2.67;1.35;;;8.20;90.10;;;;;;5107084;28;20210;-64
2022/04/06 05:21:02;;;;;;;2.40;1.25;;;8.20;90.00;;;;;;5094997;28;20216;-63
2022/04/06 05:23:30;;;;;;;2.35;1.40;;;8.20;90.10;;;;;;5095135;28;20208;-63
2022/04/06 05:25:57;;;;;;;4.25;2.10;;;8.20;90.20;;;;;;5094812;28;20235;-63
2022/04/06 05:28:24;;;;;;;5.35;2.00;;;8.30;90.20;;;;;;5093040;28;20659;-64
2022/04/06 05:30:51;;;;;;;3.17;1.92;;;8.30;90.00;;;;;;5095437;28;20553;-64
2022/04/06 05:33:19;;;;;;;2.42;1.23;;;8.40;90.00;;;;;;5095694;28;20218;-64
2022/04/06 05:35:48;;;;;;;4.65;3.05;;;8.50;90.10;;;;;;5095759;28;20370;-63
2022/04/06 05:38:16;;;;;;;4.13;3.28;;;8.50;90.20;;;;;;5113665;28;20203;-63
2022/04/06 05:40:43;;;;;;;5.03;4.15;;;8.50;90.10;;;;;;5103234;28;20586;-63
2022/04/06 05:43:11;;;;;;;2.85;2.15;;;8.60;89.90;;;;;;5095718;28;20268;-64
2022/04/06 05:45:38;;;;;;;3.50;2.63;;;8.70;89.80;;;;;;5094342;28;20193;-63
2022/04/06 05:48:07;;;;;;;2.80;1.80;;;8.70;89.40;;;;;;5102061;28;20647;-65
2022/04/06 05:50:34;;;;;;;3.30;2.20;;;8.70;89.10;;;;;;5115357;28;20188;-64
2022/04/06 05:53:03;;;;;;;2.75;2.17;;;8.80;89.20;;;;;;5094945;28;20181;-63
2022/04/06 05:55:33;;;;;;;3.05;1.98;;;8.90;89.20;;;;;;5100119;28;20631;-63
2022/04/06 05:58:00;;;;;;;2.25;1.50;;;8.90;88.60;;;;;;5092103;28;20238;-63
2022/04/06 06:00:28;;;;;;;3.85;1.00;;;9.00;88.80;;;;;;5095592;28;20225;-65
2022/04/06 06:02:56;;;;;;;2.10;1.10;;;9.10;88.90;;;;;;5095741;28;20258;-63
2022/04/06 06:05:23;;;;;;;1.90;0.95;;;9.10;88.50;;;;;;5089707;28;20276;-63
2022/04/06 06:07:50;;;;;;;1.80;0.93;;;9.20;88.40;;;;;;5093913;28;20181;-65
2022/04/06 06:10:18;;;;;;;1.88;1.10;;;9.30;88.40;;;;;;5095535;28;20205;-64
2022/04/06 06:12:45;;;;;;;2.30;1.30;;;9.30;89.00;;;;;;5095297;28;20282;-63
2022/04/06 06:15:12;;;;;;;2.17;0.98;;;9.50;89.90;;;;;;5094335;28;20272;-64
2022/04/06 06:17:39;;;;;;;2.50;0.98;;;9.60;88.50;;;;;;5094323;28;20617;-63
2022/04/06 06:20:07;;;;;;;2.05;1.10;;;9.70;88.10;;;;;;5095415;28;20311;-63
2022/04/06 06:22:35;;;;;;;6.05;2.20;;;9.70;88.70;;;;;;5112765;28;20271;-64
2022/04/06 06:25:02;;;;;;;4.13;2.72;;;9.80;87.80;;;;;;5102147;28;20221;-63
2022/04/06 06:27:31;;;;;;;3.60;2.15;;;9.80;87.60;;;;;;5103495;28;20203;-64
2022/04/06 06:29:58;;;;;;;2.75;1.60;;;9.90;85.90;;;;;;5094772;28;20185;-64
2022/04/06 06:32:25;;;;;;;2.08;0.98;;;9.90;85.50;;;;;;5100429;28;20194;-63
2022/04/06 06:34:52;;;;;;;2.20;1.08;;;10.00;84.00;;;;;;5099008;28;20215;-64
2022/04/06 06:37:19;;;;;;;3.30;1.90;;;10.10;84.40;;;;;;5106655;28;20195;-64
2022/04/06 06:39:47;;;;;;;3.63;1.60;;;10.10;84.30;;;;;;5101587;28;20261;-64
2022/04/06 06:42:14;;;;;;;2.63;1.50;;;10.30;83.50;;;;;;5103507;28;20651;-66
2022/04/06 06:44:43;;;;;;;2.10;1.10;;;10.40;83.00;;;;;;5093786;28;20207;-64
2022/04/06 06:47:10;;;;;;;2.30;1.20;;;10.40;81.90;;;;;;5094570;28;20242;-63
2022/04/06 06:49:37;;;;;;;1.70;0.95;;;10.60;82.60;;;;;;5094397;28;20512;-63
2022/04/06 06:52:05;;;;;;;3.60;1.17;;;10.80;82.70;;;;;;5097621;28;20662;-64
2022/04/06 06:54:32;;;;;;;2.13;0.90;;;11.00;82.30;;;;;;5094070;28;20746;-64
2022/04/06 06:56:59;;;;;;;1.92;1.00;;;11.20;82.50;;;;;;5093520;28;20195;-64
2022/04/06 06:59:26;;;;;;;2.70;1.00;;;11.40;81.40;;;;;;5093734;28;20196;-63
2022/04/06 07:01:58;;;;;;;1.90;0.98;;;11.50;80.10;;;;;;5094191;28;20227;-64
2022/04/06 07:04:25;;;;;;;2.45;1.40;;;11.70;76.80;;;;;;5114477;28;20197;-64
2022/04/06 07:06:52;;;;;;;2.83;1.45;;;11.90;75.60;;;;;;5094844;28;20236;-65
2022/04/06 07:09:19;;;;;;;2.60;1.77;;;12.00;74.50;;;;;;5093934;28;20643;-63
2022/04/06 07:11:46;;;;;;;2.70;1.55;;;12.20;74.70;;;;;;5108959;28;20307;-64
2022/04/06 07:14:13;;;;;;;3.03;1.58;;;12.50;73.30;;;;;;5093396;28;20258;-63
2022/04/06 07:16:40;;;;;;;3.40;1.40;;;12.80;70.30;;;;;;5100669;28;20223;-69
2022/04/06 07:19:09;;;;;;;2.80;1.70;;;13.20;71.80;;;;;;5107660;28;20212;-63
2022/04/06 07:21:36;;;;;;;4.30;2.08;;;13.60;70.40;;;;;;5103904;28;20222;-63
2022/04/06 07:24:03;;;;;;;4.17;1.93;;;14.20;70.00;;;;;;5105416;28;20185;-64
2022/04/06 07:26:30;;;;;;;3.37;2.20;;;14.80;69.50;;;;;;5094283;28;20434;-64
2022/04/06 07:28:58;;;;;;;3.30;1.80;;;15.70;65.30;;;;;;5092711;28;20442;-64
2022/04/06 07:31:25;;;;;;;5.67;2.23;;;16.80;63.70;;;;;;5091545;28;20998;-64
2022/04/06 07:33:52;;;;;;;4.80;2.33;;;18.10;62.00;;;;;;5093291;28;20840;-65
2022/04/06 07:36:21;;;;;;;3.90;2.20;;;19.60;50.90;;;;;;5084961;28;20443;-64
2022/04/06 07:38:48;;;;;;;3.40;2.10;;;21.90;53.50;;;;;;5092559;28;20440;-64
2022/04/06 07:41:15;;;;;;;3.50;2.10;;;24.10;43.50;;;;;;5093085;28;20490;-64
2022/04/06 07:43:44;;;;;;;3.70;2.00;;;25.30;36.50;;;;;;5093096;28;20466;-64
2022/04/06 07:46:11;;;;;;;6.23;1.90;;;26.10;34.80;;;;;;5093193;28;20439;-65
2022/04/06 07:48:41;;;;;;;3.97;2.60;;;27.00;32.30;;;;;;5093141;28;20439;-64
2022/04/06 07:51:08;;;;;;;4.93;2.67;;;28.20;31.80;;;;;;5093348;28;20538;-64
2022/04/06 07:53:37;;;;;;;2.87;1.87;;;29.30;30.00;;;;;;5101393;28;20460;-64
2022/04/06 07:56:06;;;;;;;7.87;2.30;;;30.40;25.90;;;;;;5109254;28;20438;-65
2022/04/06 07:58:34;;;;;;;3.40;1.70;;;31.20;27.40;;;;;;5113591;28;20441;-65
2022/04/06 08:01:02;;;;;;;3.60;2.10;;;32.20;25.50;;;;;;5106910;28;20474;-64
2022/04/06 08:03:30;;;;;;;5.00;2.00;;;33.20;24.80;;;;;;5097383;28;20440;-65
2022/04/06 08:05:58;;;;;;;2.93;1.77;;;34.30;24.10;;;;;;5100999;28;20515;-66
2022/04/06 08:08:25;;;;;;;7.23;1.73;;;35.00;23.00;;;;;;5100794;28;20528;-63
2022/04/06 08:10:57;;;;;;;3.47;1.27;;;36.00;21.90;;;;;;5099418;28;20441;-63
2022/04/06 08:13:24;;;;;;;2.30;1.17;;;36.90;19.10;;;;;;5102752;28;20827;-63
2022/04/06 08:15:51;;;;;;;3.60;1.40;;;37.50;18.70;;;;;;5103348;28;20446;-63
2022/04/06 08:18:19;;;;;;;2.43;1.63;;;37.90;17.60;;;;;;5095747;28;20536;-63
2022/04/06 08:20:47;;;;;;;2.33;1.50;;;38.40;17.60;;;;;;5092013;28;20926;-63
2022/04/06 08:23:17;;;;;;;3.40;1.30;;;38.10;15.50;;;;;;5091135;28;20449;-63
2022/04/06 08:25:44;;;;;;;2.37;1.30;;;38.00;17.10;;;;;;5091836;28;20443;-63
2022/04/06 08:28:14;;;;;;;2.90;1.20;;;38.90;17.00;;;;;;5091908;28;20443;-63
2022/04/06 08:30:42;;;;;;;2.67;0.90;;;40.00;16.30;;;;;;5092147;28;20451;-64
2022/04/06 08:33:11;;;;;;;3.20;0.97;;;40.60;14.70;;;;;;5094049;28;20519;-64
2022/04/06 08:35:39;;;;;;;3.03;1.00;;;40.80;14.20;;;;;;5092966;28;20439;-63
2022/04/06 08:38:07;;;;;;;2.03;1.00;;;41.40;14.20;;;;;;5095474;28;21214;-63
2022/04/06 08:40:35;;;;;;;2.50;1.17;;;41.90;12.50;;;;;;5094039;28;20442;-63
2022/04/06 08:43:04;;;;;;;3.00;1.03;;;42.00;11.90;;;;;;5093342;28;20445;-63
2022/04/06 08:45:34;;;;;;;4.03;1.10;;;41.90;13.10;;;;;;5098794;28;20435;-64
2022/04/06 08:48:04;;;;;;;2.00;1.10;;;42.70;13.20;;;;;;5099852;28;20597;-64
2022/04/06 08:50:31;;;;;;;1.83;0.73;;;43.60;12.80;;;;;;5100812;28;20449;-63
2022/04/06 08:52:59;;;;;;;2.37;0.90;;;44.20;12.40;;;;;;5106225;28;20507;-64
2022/04/06 08:55:26;;;;;;;1.70;0.80;;;44.80;11.90;;;;;;5100773;28;20447;-64
2022/04/06 08:57:54;;;;;;;2.20;0.80;;;45.10;11.00;;;;;;5091659;28;20441;-63
2022/04/06 09:00:21;;;;;;;1.90;0.80;;;43.30;10.30;;;;;;5093260;28;20810;-63
2022/04/06 09:02:49;;;;;;;2.33;0.90;;;42.30;12.00;;;;;;5091779;28;20481;-63
2022/04/06 09:05:22;;;;;;;3.30;1.47;;;42.60;11.80;;;;;;5094253;28;21122;-64
2022/04/06 09:07:51;;;;;;;2.00;0.97;;;43.10;12.00;;;;;;5097079;28;20435;-63
2022/04/06 09:10:42;;;;;;;1.80;0.70;;;43.10;11.30;;;;;;5097521;28;20832;-63
2022/04/06 09:13:12;;;;;;;3.73;0.90;;;43.20;11.10;;;;;;5104497;28;20434;-63
2022/04/06 09:15:41;;;;;;;2.67;1.20;;;43.90;10.80;;;;;;5105392;28;20453;-64
2022/04/06 09:18:10;;;;;;;2.00;0.70;;;44.70;10.50;;;;;;5092901;28;20478;-64
2022/04/06 09:20:37;;;;;;;1.60;0.60;;;43.60;10.20;;;;;;5094583;28;20436;-63
2022/04/06 09:23:05;;;;;;;2.00;0.97;;;44.10;10.50;;;;;;5094685;28;20478;-64
2022/04/06 09:25:36;;;;;;;2.00;1.00;;;45.00;10.10;;;;;;5097031;28;20775;-63
2022/04/06 09:28:10;;;;;;;1.90;0.80;;;45.60;9.20;;;;;;5096744;28;20844;-65
2022/04/06 09:30:45;;;;;;;2.63;1.87;;;45.00;9.70;;;;;;5103338;28;20438;-64
2022/04/06 09:33:19;;;;;;;4.23;3.00;;;45.40;9.80;;;;;;5100262;28;20441;-63
2022/04/06 09:35:48;;;;;;;3.60;2.20;;;46.20;9.10;;;;;;5099890;28;20438;-64
2022/04/06 09:38:19;;;;;;;2.37;1.30;;;46.40;8.90;;;;;;5093037;28;20468;-64
2022/04/06 09:40:47;;;;;;;5.73;4.80;;;47.00;8.80;;;;;;5093345;28;20471;-63
2022/04/06 09:43:28;;;;;;;2.57;1.10;;;45.70;8.00;;;;;;5095587;28;20442;-63
2022/04/06 09:48:58;;;;;;;4.10;1.10;;;42.40;8.50;;;;;;5097719;28;20430;-63
2022/04/06 09:51:25;;;;;;;1.90;0.80;;;39.80;9.30;;;;;;5096814;28;20481;-64
2022/04/06 09:53:54;;;;;;;1.90;0.80;;;37.90;10.90;;;;;;5097783;28;20443;-63
2022/04/06 09:56:22;;;;;;;2.10;0.80;;;38.50;12.70;;;;;;5099785;28;20497;-63
2022/04/06 09:58:50;;;;;;;1.90;0.93;;;38.90;10.80;;;;;;5103612;28;20495;-63
2022/04/06 10:01:17;;;;;;;1.70;0.60;;;38.40;12.90;;;;;;5098428;28;20447;-63
2022/04/06 10:03:54;;;;;;;2.40;0.90;;;39.10;12.50;;;;;;5096633;28;20461;-63
2022/04/06 10:06:23;;;;;;;1.60;0.80;;;40.30;10.90;;;;;;5097804;28;20484;-63
2022/04/06 10:08:54;;;;;;;3.73;0.80;;;39.70;11.50;;;;;;5097813;28;20858;-63
2022/04/06 10:11:21;;;;;;;2.60;0.73;;;40.50;10.80;;;;;;5102311;28;20532;-63
2022/04/06 10:13:49;;;;;;;2.60;0.77;;;40.50;10.40;;;;;;5105664;28;20500;-64
2022/04/06 10:16:20;;;;;;;1.90;0.80;;;39.70;10.30;;;;;;5100287;28;20816;-63
2022/04/06 10:18:48;;;;;;;1.60;0.60;;;39.40;11.00;;;;;;5106686;28;20443;-63
2022/04/06 10:21:25;;;;;;;2.03;0.77;;;41.00;12.00;;;;;;5102881;28;20821;-63
2022/04/06 10:24:07;;;;;;;1.80;0.60;;;43.70;10.70;;;;;;5103839;28;20525;-63
2022/04/06 10:26:47;;;;;;;2.20;0.60;;;43.30;9.60;;;;;;5104046;28;20449;-63
2022/04/06 10:29:15;;;;;;;2.10;0.87;;;43.90;9.10;;;;;;5104838;28;20448;-63
2022/04/06 10:31:46;;;;;;;1.83;0.90;;;42.00;8.50;;;;;;5100239;28;20487;-63
2022/04/06 10:34:24;;;;;;;2.00;0.70;;;42.10;10.60;;;;;;5105346;28;20525;-63
2022/04/06 10:37:06;;;;;;;1.90;0.70;;;44.10;9.90;;;;;;5100241;28;20474;-63
2022/04/06 10:39:34;;;;;;;4.10;2.90;;;43.70;8.50;;;;;;5099566;28;20880;-63
2022/04/06 10:42:16;;;;;;;4.27;2.77;;;41.00;8.60;;;;;;5114145;28;20430;-63
2022/04/06 10:44:45;;;;;;;2.07;1.00;;;38.20;10.00;;;;;;5114547;28;20426;-63
2022/04/06 10:47:13;;;;;;;1.93;0.80;;;36.80;11.90;;;;;;5114707;28;20442;-63
2022/04/06 10:49:41;;;;;;;1.80;0.63;;;37.00;13.00;;;;;;5113210;28;20438;-64
2022/04/06 10:52:31;;;;;;;1.60;0.60;;;39.90;13.30;;;;;;5114754;28;20477;-63
2022/04/06 10:55:08;;;;;;;2.17;0.70;;;43.30;11.50;;;;;;5111084;28;20446;-65
2022/04/06 10:57:57;;;;;;;2.10;0.80;;;45.20;9.80;;;;;;5096414;28;20442;-63
2022/04/06 11:00:25;;;;;;;1.90;0.70;;;45.40;8.00;;;;;;5083918;28;20518;-63
2022/04/06 11:02:53;;;;;;;1.80;0.70;;;42.70;8.00;;;;;;5094585;28;20435;-63
2022/04/06 11:05:46;;;;;;;1.80;0.77;;;40.00;9.30;;;;;;5090761;28;20530;-63
2022/04/06 11:11:45;;;;;;;1.60;0.70;;;36.10;11.70;;;;;;5112245;28;20469;-63
2022/04/06 11:14:13;;;;;;;2.37;0.73;;;35.90;14.10;;;;;;5102763;28;20437;-63
2022/04/06 11:16:42;;;;;;;2.40;0.80;;;37.20;12.70;;;;;;5093189;28;20474;-63
2022/04/06 11:19:09;;;;;;;1.63;0.70;;;36.70;12.40;;;;;;5104250;28;20458;-63
2022/04/06 11:21:45;;;;;;;1.93;0.80;;;35.50;12.90;;;;;;5106615;28;20447;-63
2022/04/06 11:24:17;;;;;;;1.60;0.60;;;34.80;12.60;;;;;;5093818;28;20526;-63
2022/04/06 11:26:46;;;;;;;1.50;0.60;;;33.70;13.60;;;;;;5094184;28;20446;-62
2022/04/06 11:29:14;;;;;;;1.70;0.60;;;32.80;14.80;;;;;;5100080;28;20500;-62
2022/04/06 11:32:01;;;;;;;1.80;0.80;;;32.70;14.70;;;;;;5095307;28;20570;-62
2022/04/06 11:34:36;;;;;;;2.10;1.10;;;32.10;15.20;;;;;;5097534;28;20971;-63
2022/04/06 11:37:05;;;;;;;2.00;0.70;;;31.30;15.40;;;;;;5113852;28;20496;-62
2022/04/06 11:39:33;;;;;;;2.33;0.60;;;30.40;16.00;;;;;;5096354;28;21019;-62
2022/04/06 11:42:03;;;;;;;2.20;0.70;;;29.90;16.90;;;;;;5093875;28;20438;-63
2022/04/06 11:44:31;;;;;;;1.70;0.80;;;29.40;17.20;;;;;;5109264;28;20464;-62
2022/04/06 11:46:58;;;;;;;1.70;0.63;;;29.20;19.00;;;;;;5113634;28;20527;-63
2022/04/06 11:49:29;;;;;;;1.60;0.60;;;30.00;19.40;;;;;;5094773;28;20435;-63
2022/04/06 11:51:57;;;;;;;1.87;0.70;;;31.70;19.80;;;;;;5097714;28;20474;-63
2022/04/06 11:54:25;;;;;;;2.03;0.70;;;33.70;18.40;;;;;;5108110;28;20458;-62
2022/04/06 11:56:53;;;;;;;1.60;0.50;;;34.50;15.40;;;;;;5094351;28;21032;-62
2022/04/06 11:59:23;;;;;;;2.10;0.90;;;34.40;16.10;;;;;;5095372;28;20516;-62
2022/04/06 12:01:51;;;;;;;1.60;0.60;;;34.90;14.70;;;;;;5094596;28;20925;-62
2022/04/06 12:04:21;;;;;;;1.70;0.70;;;34.40;13.20;;;;;;5093136;28;20435;-62
2022/04/06 12:06:49;;;;;;;2.20;0.70;;;33.50;13.40;;;;;;5092769;28;20458;-62
2022/04/06 12:09:17;;;;;;;1.87;0.80;;;32.30;14.10;;;;;;5093039;28;20554;-64
2022/04/06 12:11:50;;;;;;;1.90;0.80;;;31.30;15.10;;;;;;5093603;28;20518;-62
2022/04/06 12:14:18;;;;;;;1.97;0.63;;;30.40;15.90;;;;;;5107249;28;20438;-62
2022/04/06 12:16:50;;;;;;;1.93;1.13;;;29.90;17.30;;;;;;5108560;28;20883;-62
2022/04/06 12:19:20;;;;;;;1.50;0.60;;;29.40;18.60;;;;;;5109415;28;20446;-62
2022/04/06 12:21:50;;;;;;;1.60;0.50;;;29.10;17.80;;;;;;5099454;28;20438;-64
2022/04/06 12:24:20;;;;;;;2.00;0.80;;;28.90;18.20;;;;;;5092246;28;20533;-66
2022/04/06 12:26:51;;;;;;;2.30;0.70;;;29.00;21.10;;;;;;5113250;28;20815;-65
2022/04/06 12:29:19;;;;;;;1.70;0.60;;;29.20;19.10;;;;;;5100592;28;20451;-64
2022/04/06 12:31:48;;;;;;;1.73;0.63;;;29.50;19.70;;;;;;5092666;28;20855;-64
2022/04/06 12:34:32;;;;;;;1.90;0.67;;;29.20;18.90;;;;;;5103324;28;20443;-64
2022/04/06 12:37:29;;;;;;;2.17;0.70;;;28.60;18.60;;;;;;5094736;28;20481;-66
2022/04/06 12:39:54;;;;;;;3.00;0.70;;;28.20;20.20;;;;;;5112588;28;20533;-64
2022/04/06 12:42:22;;;;;;;1.57;0.50;;;27.60;19.30;;;;;;5108880;28;20455;-65
2022/04/06 12:44:58;;;;;;;2.03;0.70;;;27.10;20.10;;;;;;5092603;28;20436;-68
2022/04/06 12:47:27;;;;;;;1.70;0.70;;;26.80;20.70;;;;;;5096204;28;20437;-64
2022/04/06 12:50:13;;;;;;;2.37;0.70;;;26.80;21.90;;;;;;5113248;28;20524;-64
2022/04/06 12:52:41;;;;;;;1.90;0.70;;;26.70;22.10;;;;;;5106508;28;20538;-64
2022/04/06 12:55:12;;;;;;;1.77;0.70;;;26.60;21.90;;;;;;5092926;28;20442;-64
2022/04/06 12:57:40;;;;;;;1.80;0.90;;;26.50;22.20;;;;;;5105704;28;20482;-64
2022/04/06 13:00:13;;;;;;;1.70;0.70;;;26.30;22.00;;;;;;5112442;28;20770;-64
2022/04/06 13:02:51;;;;;;;2.10;0.63;;;26.10;22.20;;;;;;5098866;28;20511;-65
2022/04/06 13:05:20;;;;;;;2.20;0.73;;;25.80;22.40;;;;;;5099763;28;20481;-64
2022/04/06 13:07:49;;;;;;;3.03;0.73;;;25.60;24.00;;;;;;5104936;28;20825;-64
2022/04/06 13:10:19;;;;;;;2.13;0.63;;;25.50;24.50;;;;;;5099110;28;20440;-64